Time;durP1;ratioP1;P1;durP2;ratioP2;P2;SDS_P1;SDS_P2;PMS_P1;PMS_P2;Temp;Humidity;BMP_temperature;BMP_pressure;BME280_temperature;BME280_humidity;BME280_pressure;Samples;Min_cycle;Max_cycle;Signal;HPM_P1;HPM_P2
2024/01/15 00:00:46;;;;;;;16.33;1.83;;;;;;;;;;5042973;28;20017;-68
2024/01/15 00:03:12;;;;;;;8.95;1.63;;;;;;;;;;5022659;28;21809;-68
2024/01/15 00:05:38;;;;;;;19.63;1.90;;;;;;;;;;5039423;28;20954;-69
2024/01/15 00:08:04;;;;;;;9.65;1.17;;;;;;;;;;5039250;28;20661;-69
2024/01/15 00:10:30;;;;;;;8.55;1.25;;;;;;;;;;5041619;28;20106;-69
2024/01/15 00:12:56;;;;;;;3.78;0.75;;;;;;;;;;5040753;28;21027;-68
2024/01/15 00:15:22;;;;;;;5.40;1.20;;;;;;;;;;5040957;28;21791;-68
2024/01/15 00:17:48;;;;;;;5.55;0.70;;;;;;;;;;5040872;28;20029;-68
2024/01/15 00:20:14;;;;;;;6.05;0.90;;;;;;;;;;5039533;28;20124;-68
2024/01/15 00:22:40;;;;;;;5.53;1.40;;;;;;;;;;5041933;28;20028;-68
2024/01/15 00:25:07;;;;;;;8.52;1.33;;;;;;;;;;5041277;28;20131;-68
2024/01/15 00:27:33;;;;;;;10.68;1.50;;;;;;;;;;5040324;28;20036;-68
2024/01/15 00:29:59;;;;;;;7.70;1.42;;;;;;;;;;5021793;28;20032;-68
2024/01/15 00:32:25;;;;;;;4.97;0.60;;;;;;;;;;5041308;28;20918;-68
2024/01/15 00:34:51;;;;;;;5.82;0.85;;;;;;;;;;5024277;28;20041;-69
2024/01/15 00:37:17;;;;;;;5.95;1.60;;;;;;;;;;5028386;28;20067;-69
2024/01/15 00:39:43;;;;;;;3.53;0.40;;;;;;;;;;5042459;28;20036;-68
2024/01/15 00:42:09;;;;;;;3.97;0.60;;;;;;;;;;5043134;28;20116;-68
2024/01/15 00:44:35;;;;;;;6.13;0.52;;;;;;;;;;5043028;28;20044;-68
2024/01/15 00:47:01;;;;;;;3.47;0.80;;;;;;;;;;5042541;28;20025;-68
2024/01/15 00:49:28;;;;;;;6.88;1.25;;;;;;;;;;5031823;28;20044;-68
2024/01/15 00:51:54;;;;;;;8.73;1.25;;;;;;;;;;5043269;28;20037;-68
2024/01/15 00:54:20;;;;;;;7.90;1.10;;;;;;;;;;5041314;28;20037;-68
2024/01/15 00:56:46;;;;;;;6.68;1.10;;;;;;;;;;5042572;28;20048;-68
2024/01/15 00:59:14;;;;;;;9.90;2.78;;;;;;;;;;5042509;28;20101;-68
2024/01/15 01:01:42;;;;;;;12.75;1.42;;;;;;;;;;5041598;28;20052;-68
2024/01/15 01:04:09;;;;;;;7.65;1.58;;;;;;;;;;5043318;28;20029;-68
2024/01/15 01:06:35;;;;;;;12.98;2.88;;;;;;;;;;5042985;28;20446;-68
2024/01/15 01:09:01;;;;;;;17.00;2.05;;;;;;;;;;5027217;28;20032;-68
2024/01/15 01:11:27;;;;;;;15.93;2.80;;;;;;;;;;5043145;28;20049;-68
2024/01/15 01:13:53;;;;;;;10.45;1.77;;;;;;;;;;5042018;28;20044;-68
2024/01/15 01:16:19;;;;;;;15.02;2.13;;;;;;;;;;5027999;28;20029;-68
2024/01/15 01:18:45;;;;;;;11.32;1.65;;;;;;;;;;5041077;28;20036;-68
2024/01/15 01:21:11;;;;;;;11.57;1.25;;;;;;;;;;5043456;28;20147;-68
2024/01/15 01:23:37;;;;;;;10.05;1.40;;;;;;;;;;5043218;28;20723;-68
2024/01/15 01:26:03;;;;;;;9.20;1.50;;;;;;;;;;5025640;28;20472;-68
2024/01/15 01:28:29;;;;;;;9.77;1.60;;;;;;;;;;5043704;28;20067;-68
2024/01/15 01:30:55;;;;;;;13.30;1.60;;;;;;;;;;5042495;28;20036;-68
2024/01/15 01:33:21;;;;;;;10.05;1.50;;;;;;;;;;5041546;28;20037;-68
2024/01/15 01:35:48;;;;;;;7.78;1.20;;;;;;;;;;5044128;28;20060;-68
2024/01/15 01:38:14;;;;;;;10.20;1.50;;;;;;;;;;5042153;28;20040;-68
2024/01/15 01:40:40;;;;;;;15.77;2.90;;;;;;;;;;5022421;28;20086;-68
2024/01/15 01:43:06;;;;;;;11.43;1.70;;;;;;;;;;5042396;28;20044;-68
2024/01/15 01:45:32;;;;;;;7.60;1.30;;;;;;;;;;5041762;28;20096;-68
2024/01/15 01:47:58;;;;;;;8.93;1.60;;;;;;;;;;5041992;28;20033;-68
2024/01/15 01:50:24;;;;;;;9.55;1.90;;;;;;;;;;5042652;28;21683;-68
2024/01/15 01:52:51;;;;;;;10.60;2.03;;;;;;;;;;5041870;28;20096;-69
2024/01/15 01:55:17;;;;;;;7.38;1.23;;;;;;;;;;5022282;28;20047;-69
2024/01/15 01:57:43;;;;;;;14.20;1.70;;;;;;;;;;5023426;28;20490;-69
2024/01/15 02:00:10;;;;;;;7.72;1.40;;;;;;;;;;5040036;28;20029;-69
2024/01/15 02:02:36;;;;;;;15.05;1.90;;;;;;;;;;5039669;28;20155;-69
2024/01/15 02:05:04;;;;;;;10.10;2.08;;;;;;;;;;5040444;28;20041;-69
2024/01/15 02:07:30;;;;;;;12.60;2.78;;;;;;;;;;5040198;28;20152;-69
2024/01/15 02:09:56;;;;;;;10.25;1.52;;;;;;;;;;5039739;28;20037;-69
2024/01/15 02:12:22;;;;;;;7.47;1.25;;;;;;;;;;5040699;28;20048;-69
2024/01/15 02:14:48;;;;;;;10.45;1.35;;;;;;;;;;5041372;28;20411;-68
2024/01/15 02:17:14;;;;;;;8.20;1.73;;;;;;;;;;5042814;28;20029;-68
2024/01/15 02:19:40;;;;;;;12.85;1.83;;;;;;;;;;5040576;28;20041;-68
2024/01/15 02:22:06;;;;;;;7.28;1.50;;;;;;;;;;5041267;28;20041;-68
2024/01/15 02:24:33;;;;;;;8.90;1.30;;;;;;;;;;5041925;28;20089;-68
2024/01/15 02:26:59;;;;;;;8.25;1.40;;;;;;;;;;5040990;28;20039;-68
2024/01/15 02:29:25;;;;;;;13.38;1.85;;;;;;;;;;5040404;28;20040;-69
2024/01/15 02:31:51;;;;;;;7.65;1.40;;;;;;;;;;5041829;28;20024;-69
2024/01/15 02:34:17;;;;;;;11.80;1.83;;;;;;;;;;5042075;28;20499;-68
2024/01/15 02:36:43;;;;;;;12.48;1.52;;;;;;;;;;5040866;28;20028;-68
2024/01/15 02:39:09;;;;;;;10.73;1.60;;;;;;;;;;5023981;28;20538;-68
2024/01/15 02:41:35;;;;;;;10.00;1.55;;;;;;;;;;5039451;28;20090;-68
2024/01/15 02:44:01;;;;;;;8.68;1.55;;;;;;;;;;5040341;28;20251;-68
2024/01/15 02:46:27;;;;;;;13.40;1.88;;;;;;;;;;5039825;28;20036;-68
2024/01/15 02:48:53;;;;;;;9.23;1.52;;;;;;;;;;5039911;28;20035;-69
2024/01/15 02:51:19;;;;;;;8.75;1.63;;;;;;;;;;5023463;28;20032;-68
2024/01/15 02:53:45;;;;;;;14.07;2.55;;;;;;;;;;5040422;28;20131;-68
2024/01/15 02:56:11;;;;;;;13.27;1.80;;;;;;;;;;5039747;28;20076;-68
2024/01/15 02:58:37;;;;;;;7.80;1.83;;;;;;;;;;5039726;28;20071;-68
2024/01/15 03:01:03;;;;;;;25.02;2.67;;;;;;;;;;5040691;28;20021;-68
2024/01/15 03:03:30;;;;;;;13.68;2.42;;;;;;;;;;5040484;28;20024;-68
2024/01/15 03:05:56;;;;;;;16.30;1.95;;;;;;;;;;5040551;28;20039;-68
2024/01/15 03:08:22;;;;;;;13.80;2.65;;;;;;;;;;5040703;28;20117;-68
2024/01/15 03:10:48;;;;;;;9.40;2.17;;;;;;;;;;5039751;28;20516;-68
2024/01/15 03:13:14;;;;;;;10.73;2.10;;;;;;;;;;5039936;28;20693;-68
2024/01/15 03:15:40;;;;;;;12.18;2.72;;;;;;;;;;5019801;28;21088;-68
2024/01/15 03:18:06;;;;;;;13.32;2.65;;;;;;;;;;5041053;28;20040;-68
2024/01/15 03:20:33;;;;;;;16.48;2.35;;;;;;;;;;5039826;28;20085;-68
2024/01/15 03:22:59;;;;;;;22.08;3.17;;;;;;;;;;5021506;28;20115;-68
2024/01/15 03:25:25;;;;;;;18.63;2.10;;;;;;;;;;5040631;28;20119;-68
2024/01/15 03:27:51;;;;;;;15.02;2.67;;;;;;;;;;5038389;28;20074;-68
2024/01/15 03:30:17;;;;;;;15.32;2.55;;;;;;;;;;5038583;28;20040;-68
2024/01/15 03:32:43;;;;;;;14.48;2.65;;;;;;;;;;5038508;28;20044;-68
2024/01/15 03:35:09;;;;;;;17.25;2.05;;;;;;;;;;5039328;28;20041;-68
2024/01/15 03:37:35;;;;;;;15.38;2.20;;;;;;;;;;5021186;28;20105;-68
2024/01/15 03:40:02;;;;;;;11.98;1.92;;;;;;;;;;5036969;28;20043;-68
2024/01/15 03:42:28;;;;;;;14.57;2.28;;;;;;;;;;5038362;28;20036;-69
2024/01/15 03:44:54;;;;;;;18.83;2.40;;;;;;;;;;5038734;28;20094;-69
2024/01/15 03:47:20;;;;;;;12.85;2.03;;;;;;;;;;5038716;28;20040;-68
2024/01/15 03:49:46;;;;;;;9.55;2.25;;;;;;;;;;5021391;28;20040;-68
2024/01/15 03:52:12;;;;;;;7.22;1.80;;;;;;;;;;5020039;28;20412;-68
2024/01/15 03:54:38;;;;;;;12.30;1.63;;;;;;;;;;5039254;28;20045;-68
2024/01/15 03:57:05;;;;;;;14.63;1.58;;;;;;;;;;5038301;28;20901;-68
2024/01/15 03:59:31;;;;;;;7.10;1.38;;;;;;;;;;5038810;28;20032;-68
2024/01/15 04:01:57;;;;;;;14.02;1.52;;;;;;;;;;5036795;28;20032;-68
2024/01/15 04:04:23;;;;;;;8.75;1.73;;;;;;;;;;5040082;28;20037;-69
2024/01/15 04:06:49;;;;;;;6.25;0.95;;;;;;;;;;5040187;28;20044;-69
2024/01/15 04:09:15;;;;;;;9.88;1.80;;;;;;;;;;5022031;28;20114;-68
2024/01/15 04:11:41;;;;;;;5.60;1.30;;;;;;;;;;5042054;28;20413;-68
2024/01/15 04:14:07;;;;;;;5.35;1.40;;;;;;;;;;5043574;28;20131;-68
2024/01/15 04:16:33;;;;;;;8.85;1.30;;;;;;;;;;5044753;28;20037;-69
2024/01/15 04:18:59;;;;;;;8.93;1.20;;;;;;;;;;5042150;28;20119;-69
2024/01/15 04:21:25;;;;;;;7.93;1.13;;;;;;;;;;5025052;28;20044;-69
2024/01/15 04:23:51;;;;;;;9.73;1.10;;;;;;;;;;5043303;28;20036;-69
2024/01/15 04:26:17;;;;;;;8.88;1.23;;;;;;;;;;5039924;28;20028;-69
2024/01/15 04:28:43;;;;;;;11.15;1.30;;;;;;;;;;5039503;28;20036;-69
2024/01/15 04:31:09;;;;;;;6.47;1.08;;;;;;;;;;5039474;28;20025;-69
2024/01/15 04:33:35;;;;;;;11.65;1.45;;;;;;;;;;5038369;28;20665;-69
2024/01/15 04:36:08;;;;;;;8.88;1.77;;;;;;;;;;5039573;28;20912;-69
2024/01/15 04:38:36;;;;;;;5.00;1.20;;;;;;;;;;5037251;28;20090;-69
2024/01/15 04:41:02;;;;;;;9.48;1.13;;;;;;;;;;5021083;28;20036;-69
2024/01/15 04:43:28;;;;;;;6.45;1.27;;;;;;;;;;5042885;28;20036;-69
2024/01/15 04:45:54;;;;;;;5.55;0.80;;;;;;;;;;5043524;28;20036;-69
2024/01/15 04:48:20;;;;;;;9.02;1.02;;;;;;;;;;5043261;28;20403;-69
2024/01/15 04:50:46;;;;;;;9.07;1.13;;;;;;;;;;5041597;28;20041;-69
2024/01/15 04:53:12;;;;;;;7.38;1.02;;;;;;;;;;5042614;28;20036;-69
2024/01/15 04:55:39;;;;;;;5.43;0.55;;;;;;;;;;5040179;28;20065;-69
2024/01/15 04:58:05;;;;;;;6.22;0.90;;;;;;;;;;5041934;28;20032;-69
2024/01/15 05:00:31;;;;;;;6.18;0.85;;;;;;;;;;5041172;28;20039;-69
2024/01/15 05:02:57;;;;;;;2.63;0.90;;;;;;;;;;5040509;28;20028;-69
2024/01/15 05:05:23;;;;;;;5.90;0.73;;;;;;;;;;5041236;28;20118;-69
2024/01/15 05:07:49;;;;;;;4.05;0.82;;;;;;;;;;5040898;28;20044;-69
2024/01/15 05:10:15;;;;;;;3.33;0.50;;;;;;;;;;5040096;28;20486;-69
2024/01/15 05:12:41;;;;;;;3.55;0.63;;;;;;;;;;5039648;28;20071;-69
2024/01/15 05:15:07;;;;;;;4.93;0.68;;;;;;;;;;5040391;28;20041;-68
2024/01/15 05:17:33;;;;;;;4.85;0.70;;;;;;;;;;5039310;28;20037;-68
2024/01/15 05:19:59;;;;;;;4.65;1.10;;;;;;;;;;5040969;28;20041;-68
2024/01/15 05:22:25;;;;;;;5.60;1.30;;;;;;;;;;5040118;28;20032;-68
2024/01/15 05:24:51;;;;;;;12.18;1.65;;;;;;;;;;5041037;28;20499;-68
2024/01/15 05:27:17;;;;;;;10.85;1.20;;;;;;;;;;5042517;28;21450;-69
2024/01/15 05:29:44;;;;;;;10.98;1.70;;;;;;;;;;5041191;28;20102;-69
2024/01/15 05:32:10;;;;;;;14.10;1.77;;;;;;;;;;5020722;28;20041;-69
2024/01/15 05:34:36;;;;;;;12.68;1.50;;;;;;;;;;5022169;28;20575;-69
2024/01/15 05:37:02;;;;;;;8.73;1.92;;;;;;;;;;5040197;28;20036;-68
2024/01/15 05:39:28;;;;;;;8.85;1.40;;;;;;;;;;5039578;28;20029;-68
2024/01/15 05:41:54;;;;;;;14.63;1.98;;;;;;;;;;5040020;28;20814;-68
2024/01/15 05:44:20;;;;;;;10.50;2.40;;;;;;;;;;5024226;28;20078;-68
2024/01/15 05:46:46;;;;;;;11.75;2.53;;;;;;;;;;5040471;28;20042;-68
2024/01/15 05:49:18;;;;;;;10.70;2.13;;;;;;;;;;5039497;28;20128;-68
2024/01/15 05:51:44;;;;;;;11.82;1.95;;;;;;;;;;5039917;28;20032;-68
2024/01/15 05:54:10;;;;;;;14.10;1.85;;;;;;;;;;5040057;28;20040;-68
2024/01/15 05:56:36;;;;;;;11.15;1.65;;;;;;;;;;5001110;28;1112849;-68
2024/01/15 05:59:02;;;;;;;12.75;1.90;;;;;;;;;;5023336;28;20033;-68
2024/01/15 06:01:28;;;;;;;5.55;1.58;;;;;;;;;;5042754;28;20033;-68
2024/01/15 06:03:54;;;;;;;9.77;1.60;;;;;;;;;;5040407;28;20048;-68
2024/01/15 06:06:20;;;;;;;13.05;1.88;;;;;;;;;;5040510;28;20118;-68
2024/01/15 06:08:46;;;;;;;10.70;1.98;;;;;;;;;;5021465;28;20041;-68
2024/01/15 06:11:12;;;;;;;13.10;2.13;;;;;;;;;;5039957;28;20040;-68
2024/01/15 06:13:38;;;;;;;14.02;3.47;;;;;;;;;;5040487;28;20122;-68
2024/01/15 06:16:12;;;;;;;18.85;1.85;;;;;;;;;;5039993;28;20044;-68
2024/01/15 06:18:38;;;;;;;15.68;2.08;;;;;;;;;;5039833;28;20492;-68
2024/01/15 06:21:04;;;;;;;14.63;2.55;;;;;;;;;;5039975;28;20033;-68
2024/01/15 06:23:30;;;;;;;11.00;2.75;;;;;;;;;;5022725;28;20037;-68
2024/01/15 06:25:56;;;;;;;20.38;2.45;;;;;;;;;;5030545;28;20052;-68
2024/01/15 06:28:22;;;;;;;14.63;2.30;;;;;;;;;;5039440;28;20094;-68
2024/01/15 06:30:48;;;;;;;15.40;1.75;;;;;;;;;;5041981;28;20033;-69
2024/01/15 06:33:14;;;;;;;10.15;2.20;;;;;;;;;;5040729;28;20048;-69
2024/01/15 06:35:40;;;;;;;10.02;1.77;;;;;;;;;;5042201;28;20033;-69
2024/01/15 06:38:06;;;;;;;14.32;2.10;;;;;;;;;;5041512;28;20039;-69
2024/01/15 06:40:32;;;;;;;28.95;3.38;;;;;;;;;;5038686;28;20047;-69
2024/01/15 06:42:59;;;;;;;16.50;3.58;;;;;;;;;;5037359;28;20037;-69
2024/01/15 06:45:25;;;;;;;12.63;2.40;;;;;;;;;;5036038;28;20067;-69
2024/01/15 06:47:51;;;;;;;14.27;2.13;;;;;;;;;;5037031;28;20071;-69
2024/01/15 06:50:17;;;;;;;15.98;2.50;;;;;;;;;;5034920;28;20043;-69
2024/01/15 06:52:43;;;;;;;14.52;2.10;;;;;;;;;;5033207;28;20764;-69
2024/01/15 06:55:09;;;;;;;11.10;1.80;;;;;;;;;;5037377;28;20043;-69
2024/01/15 06:57:35;;;;;;;11.30;2.00;;;;;;;;;;5039576;28;20057;-69
2024/01/15 07:00:02;;;;;;;16.00;2.20;;;;;;;;;;5038312;28;21335;-69
2024/01/15 07:02:28;;;;;;;13.10;1.88;;;;;;;;;;5040020;28;20035;-69
2024/01/15 07:04:54;;;;;;;8.80;1.65;;;;;;;;;;5042505;28;20040;-69
2024/01/15 07:07:20;;;;;;;14.82;2.08;;;;;;;;;;5042870;28;20102;-69
2024/01/15 07:09:46;;;;;;;15.18;1.90;;;;;;;;;;5040786;28;20037;-69
2024/01/15 07:12:12;;;;;;;7.28;1.40;;;;;;;;;;5041125;28;20047;-69
2024/01/15 07:14:38;;;;;;;7.38;1.48;;;;;;;;;;5040729;28;20052;-69
2024/01/15 07:17:04;;;;;;;9.05;1.92;;;;;;;;;;5041358;28;20063;-69
2024/01/15 07:19:30;;;;;;;14.65;2.28;;;;;;;;;;5039569;28;20048;-69
2024/01/15 07:21:57;;;;;;;11.38;1.63;;;;;;;;;;5039755;28;20044;-69
2024/01/15 07:24:23;;;;;;;7.45;1.30;;;;;;;;;;5039143;28;20048;-68
2024/01/15 07:26:49;;;;;;;10.30;1.80;;;;;;;;;;5038895;28;20055;-68
2024/01/15 07:29:15;;;;;;;13.88;1.38;;;;;;;;;;5038709;28;20846;-68
2024/01/15 07:31:41;;;;;;;6.65;0.93;;;;;;;;;;5033572;28;20135;-68
2024/01/15 07:34:07;;;;;;;12.85;1.10;;;;;;;;;;5031678;28;20070;-68
2024/01/15 07:36:33;;;;;;;6.53;1.38;;;;;;;;;;5029730;28;20043;-68
2024/01/15 07:38:59;;;;;;;8.93;1.45;;;;;;;;;;5030316;28;20040;-67
2024/01/15 07:41:25;;;;;;;6.65;1.27;;;;;;;;;;5029609;28;20029;-67
2024/01/15 07:43:51;;;;;;;8.20;1.63;;;;;;;;;;5017809;28;20935;-68
2024/01/15 07:46:17;;;;;;;7.63;1.30;;;;;;;;;;5030944;28;20472;-68
2024/01/15 07:48:44;;;;;;;13.82;1.70;;;;;;;;;;5030521;28;20036;-68
2024/01/15 07:51:10;;;;;;;8.00;1.05;;;;;;;;;;5031477;28;20054;-69
2024/01/15 07:53:36;;;;;;;13.05;2.60;;;;;;;;;;5011735;28;20037;-69
2024/01/15 07:56:02;;;;;;;9.35;1.52;;;;;;;;;;5028152;28;20052;-68
2024/01/15 07:58:28;;;;;;;10.50;2.13;;;;;;;;;;5000928;28;20119;-69
2024/01/15 08:00:54;;;;;;;9.93;1.50;;;;;;;;;;5030125;28;20043;-69
2024/01/15 08:03:20;;;;;;;10.38;1.33;;;;;;;;;;5027260;28;21195;-69
2024/01/15 08:05:46;;;;;;;12.20;2.20;;;;;;;;;;5029298;28;20041;-69
2024/01/15 08:08:12;;;;;;;10.93;1.10;;;;;;;;;;5030495;28;20452;-69
2024/01/15 08:10:38;;;;;;;11.75;1.52;;;;;;;;;;5028160;28;20051;-69
2024/01/15 08:13:04;;;;;;;8.35;1.15;;;;;;;;;;5025209;28;21883;-69
2024/01/15 08:15:31;;;;;;;10.32;1.20;;;;;;;;;;5030380;28;20072;-69
2024/01/15 08:17:57;;;;;;;9.55;1.40;;;;;;;;;;5026688;28;20041;-69
2024/01/15 08:20:23;;;;;;;7.85;0.95;;;;;;;;;;5029201;28;20051;-69
2024/01/15 08:22:49;;;;;;;6.78;1.00;;;;;;;;;;5029439;28;20025;-69
2024/01/15 08:25:15;;;;;;;6.95;0.93;;;;;;;;;;5029581;28;20492;-69
2024/01/15 08:27:42;;;;;;;5.10;1.27;;;;;;;;;;5028610;28;20050;-69
2024/01/15 08:30:08;;;;;;;10.63;1.67;;;;;;;;;;5029057;28;20055;-69
2024/01/15 08:32:40;;;;;;;6.28;1.20;;;;;;;;;;5028854;28;20723;-69
2024/01/15 08:35:06;;;;;;;5.38;0.98;;;;;;;;;;5028192;28;20797;-69
2024/01/15 08:37:32;;;;;;;5.63;1.17;;;;;;;;;;5028271;28;20040;-69
2024/01/15 08:39:58;;;;;;;9.27;1.10;;;;;;;;;;5029681;28;20029;-69
2024/01/15 08:42:24;;;;;;;3.00;0.80;;;;;;;;;;5031183;28;20476;-69
2024/01/15 08:44:51;;;;;;;11.25;1.20;;;;;;;;;;5033630;28;20484;-69
2024/01/15 08:47:17;;;;;;;6.65;0.85;;;;;;;;;;5023093;28;20859;-69
2024/01/15 08:49:45;;;;;;;6.15;1.48;;;;;;;;;;5028466;28;20032;-69
2024/01/15 08:52:11;;;;;;;3.78;0.60;;;;;;;;;;5028943;28;20131;-69
2024/01/15 08:54:37;;;;;;;7.07;1.02;;;;;;;;;;5029980;28;20036;-69
2024/01/15 08:57:03;;;;;;;5.47;0.68;;;;;;;;;;5031414;28;20047;-69
2024/01/15 08:59:29;;;;;;;6.85;1.08;;;;;;;;;;5032792;28;20029;-69
2024/01/15 09:01:58;;;;;;;4.72;0.98;;;;;;;;;;5031245;28;20122;-69
2024/01/15 09:04:24;;;;;;;8.45;1.35;;;;;;;;;;5033607;28;20117;-69
2024/01/15 09:06:50;;;;;;;3.78;0.75;;;;;;;;;;5031849;28;20139;-69
2024/01/15 09:09:16;;;;;;;5.78;1.10;;;;;;;;;;5032276;28;20052;-69
2024/01/15 09:11:42;;;;;;;8.18;1.35;;;;;;;;;;5034380;28;20040;-69
2024/01/15 09:14:09;;;;;;;5.05;1.10;;;;;;;;;;5032345;28;20036;-69
2024/01/15 09:16:35;;;;;;;5.70;1.33;;;;;;;;;;5032789;28;20025;-69
2024/01/15 09:19:01;;;;;;;10.05;1.38;;;;;;;;;;5029313;28;20036;-67
2024/01/15 09:21:27;;;;;;;5.53;1.23;;;;;;;;;;5013839;28;20056;-67
2024/01/15 09:23:53;;;;;;;6.38;1.25;;;;;;;;;;5031779;28;20037;-67
2024/01/15 09:26:19;;;;;;;13.45;2.03;;;;;;;;;;5032348;28;20036;-67
2024/01/15 09:28:45;;;;;;;8.00;1.00;;;;;;;;;;5016636;28;20779;-67
2024/01/15 09:31:11;;;;;;;6.60;1.20;;;;;;;;;;5019101;28;20467;-67
2024/01/15 09:33:37;;;;;;;7.68;1.38;;;;;;;;;;5030847;28;20055;-67
2024/01/15 09:36:05;;;;;;;8.18;1.50;;;;;;;;;;5032297;28;20039;-67
2024/01/15 09:38:31;;;;;;;7.47;1.23;;;;;;;;;;5031353;28;20119;-67
2024/01/15 09:40:58;;;;;;;8.55;1.38;;;;;;;;;;5032365;28;20032;-67
2024/01/15 09:43:24;;;;;;;12.65;1.35;;;;;;;;;;5031961;28;20025;-67
2024/01/15 09:45:50;;;;;;;10.60;1.50;;;;;;;;;;5030563;28;20106;-67
2024/01/15 09:48:17;;;;;;;12.40;1.58;;;;;;;;;;5030589;28;20716;-67
2024/01/15 09:50:43;;;;;;;7.38;0.98;;;;;;;;;;5032336;28;20967;-67
2024/01/15 09:53:09;;;;;;;10.05;2.08;;;;;;;;;;5031403;28;20047;-67
2024/01/15 09:55:39;;;;;;;7.00;1.38;;;;;;;;;;5030921;28;20400;-67
2024/01/15 09:58:05;;;;;;;10.32;1.48;;;;;;;;;;5032671;28;20488;-67
2024/01/15 10:00:31;;;;;;;8.30;1.40;;;;;;;;;;5031723;28;20037;-66
2024/01/15 10:02:57;;;;;;;10.13;2.00;;;;;;;;;;5031331;28;20029;-67
2024/01/15 10:05:24;;;;;;;8.70;1.40;;;;;;;;;;5032099;28;20048;-67
2024/01/15 10:07:50;;;;;;;11.77;1.70;;;;;;;;;;5031053;28;21190;-67
2024/01/15 10:10:16;;;;;;;7.40;1.13;;;;;;;;;;5031700;28;20491;-67
2024/01/15 10:12:43;;;;;;;9.25;1.40;;;;;;;;;;5032968;28;20029;-67
2024/01/15 10:15:12;;;;;;;9.75;1.17;;;;;;;;;;5017782;28;20670;-67
2024/01/15 10:17:39;;;;;;;9.93;1.60;;;;;;;;;;5028047;28;20157;-67
2024/01/15 10:20:09;;;;;;;7.88;1.08;;;;;;;;;;5031491;28;20094;-67
2024/01/15 10:22:38;;;;;;;6.63;1.10;;;;;;;;;;5030542;28;20078;-67
2024/01/15 10:25:05;;;;;;;9.65;1.33;;;;;;;;;;5031900;28;20463;-67
2024/01/15 10:27:31;;;;;;;7.72;1.85;;;;;;;;;;5031626;28;20472;-67
2024/01/15 10:30:00;;;;;;;9.00;1.30;;;;;;;;;;5031175;28;20151;-67
2024/01/15 10:32:26;;;;;;;5.78;1.00;;;;;;;;;;5031263;28;20042;-67
2024/01/15 10:34:53;;;;;;;5.40;1.13;;;;;;;;;;5030847;28;20037;-67
2024/01/15 10:37:20;;;;;;;14.05;1.67;;;;;;;;;;5028800;28;20032;-67
2024/01/15 10:39:47;;;;;;;6.97;1.38;;;;;;;;;;5031720;28;20032;-67
2024/01/15 10:42:13;;;;;;;6.95;1.30;;;;;;;;;;5012154;28;20480;-67
2024/01/15 10:44:39;;;;;;;9.35;1.00;;;;;;;;;;5030864;28;20032;-67
2024/01/15 10:47:05;;;;;;;6.65;0.93;;;;;;;;;;5030730;28;20052;-67
2024/01/15 10:49:32;;;;;;;5.82;0.93;;;;;;;;;;5031440;28;20051;-67
2024/01/15 10:51:58;;;;;;;5.75;0.95;;;;;;;;;;5030149;28;21546;-67
2024/01/15 10:54:24;;;;;;;2.80;0.60;;;;;;;;;;5030938;28;20391;-67
2024/01/15 10:56:51;;;;;;;2.60;0.35;;;;;;;;;;5030813;28;20049;-67
2024/01/15 10:59:17;;;;;;;5.05;0.50;;;;;;;;;;5011396;28;20059;-67
2024/01/15 11:01:44;;;;;;;1.90;0.45;;;;;;;;;;5031235;28;20037;-67
2024/01/15 11:04:10;;;;;;;3.88;0.60;;;;;;;;;;5027889;28;20580;-67
2024/01/15 11:06:46;;;;;;;6.53;0.73;;;;;;;;;;5029087;28;20033;-67
2024/01/15 11:09:12;;;;;;;3.28;0.60;;;;;;;;;;5028335;28;21759;-67
2024/01/15 11:11:49;;;;;;;5.18;0.90;;;;;;;;;;5027921;28;20025;-67
2024/01/15 11:14:57;;;;;;;3.40;0.50;;;;;;;;;;5027905;28;20032;-67
2024/01/15 11:17:23;;;;;;;3.15;0.75;;;;;;;;;;4993112;28;20831;-67
2024/01/15 11:19:52;;;;;;;2.90;0.60;;;;;;;;;;4993639;28;20107;-67
2024/01/15 11:22:30;;;;;;;5.75;0.70;;;;;;;;;;5012400;28;20480;-67
2024/01/15 11:25:17;;;;;;;5.45;0.95;;;;;;;;;;5027891;28;20127;-67
2024/01/15 11:27:44;;;;;;;6.40;2.05;;;;;;;;;;5028930;28;20033;-67
2024/01/15 11:30:11;;;;;;;4.55;1.00;;;;;;;;;;5030714;28;20029;-67
2024/01/15 11:32:41;;;;;;;4.38;0.85;;;;;;;;;;5029485;28;20076;-67
2024/01/15 11:35:08;;;;;;;4.18;0.77;;;;;;;;;;5029493;28;20133;-67
2024/01/15 11:37:56;;;;;;;5.65;1.00;;;;;;;;;;5026620;28;20144;-67
2024/01/15 11:40:24;;;;;;;2.50;0.40;;;;;;;;;;5028851;28;20029;-67
2024/01/15 11:42:52;;;;;;;3.72;0.50;;;;;;;;;;5028818;28;20064;-67
2024/01/15 11:45:19;;;;;;;5.50;0.65;;;;;;;;;;5026595;28;20039;-66
2024/01/15 11:48:00;;;;;;;1.73;0.30;;;;;;;;;;5028872;28;20123;-67
2024/01/15 11:50:27;;;;;;;1.52;0.60;;;;;;;;;;5029587;28;20044;-67
2024/01/15 11:53:04;;;;;;;1.02;0.32;;;;;;;;;;5026264;28;21760;-67
2024/01/15 11:55:34;;;;;;;2.42;0.50;;;;;;;;;;5021220;28;20040;-67
2024/01/15 11:58:01;;;;;;;4.50;0.50;;;;;;;;;;5024195;28;20771;-66
2024/01/15 12:00:28;;;;;;;4.80;0.68;;;;;;;;;;5023342;28;20114;-67
2024/01/15 12:02:55;;;;;;;3.75;0.65;;;;;;;;;;5021563;28;20099;-67
2024/01/15 12:05:22;;;;;;;2.92;0.70;;;;;;;;;;5024341;28;20539;-67
2024/01/15 12:07:49;;;;;;;6.13;0.90;;;;;;;;;;5023607;28;20029;-67
2024/01/15 12:10:18;;;;;;;3.67;0.60;;;;;;;;;;5023496;28;20063;-67
2024/01/15 12:12:56;;;;;;;4.15;0.80;;;;;;;;;;5021965;28;20746;-67
2024/01/15 12:15:22;;;;;;;7.60;1.15;;;;;;;;;;5023700;28;20039;-67
2024/01/15 12:17:48;;;;;;;9.68;1.20;;;;;;;;;;5023609;28;20144;-67
2024/01/15 12:20:15;;;;;;;8.95;1.00;;;;;;;;;;5023211;28;20033;-67
2024/01/15 12:22:41;;;;;;;8.32;1.00;;;;;;;;;;5024530;28;20834;-67
2024/01/15 12:25:08;;;;;;;11.65;1.58;;;;;;;;;;5024048;28;20059;-67
2024/01/15 12:27:34;;;;;;;10.07;1.00;;;;;;;;;;5022520;28;20032;-67
2024/01/15 12:30:00;;;;;;;7.40;1.48;;;;;;;;;;5025105;28;20647;-67
2024/01/15 12:32:26;;;;;;;5.93;1.00;;;;;;;;;;5025513;28;20123;-67
2024/01/15 12:34:52;;;;;;;8.80;1.25;;;;;;;;;;5027452;28;20056;-67
2024/01/15 12:37:22;;;;;;;4.53;0.90;;;;;;;;;;5028102;28;20087;-67
2024/01/15 12:39:48;;;;;;;5.32;0.90;;;;;;;;;;5009248;28;20062;-67
2024/01/15 12:42:17;;;;;;;7.47;1.17;;;;;;;;;;5027546;28;20632;-67
2024/01/15 12:44:45;;;;;;;8.10;1.08;;;;;;;;;;5027707;28;20999;-67
2024/01/15 12:47:11;;;;;;;8.70;1.77;;;;;;;;;;5026869;28;20033;-67
2024/01/15 12:49:38;;;;;;;6.85;1.30;;;;;;;;;;5027525;28;20033;-67
2024/01/15 12:52:04;;;;;;;6.65;1.20;;;;;;;;;;5027614;28;20029;-67
2024/01/15 12:54:30;;;;;;;9.43;1.55;;;;;;;;;;5026949;28;21560;-67
2024/01/15 12:56:56;;;;;;;6.22;1.25;;;;;;;;;;5028008;28;20564;-67
2024/01/15 12:59:22;;;;;;;11.38;1.00;;;;;;;;;;5030043;28;20032;-67
2024/01/15 13:01:48;;;;;;;6.53;1.13;;;;;;;;;;5032322;28;20037;-67
2024/01/15 13:04:23;;;;;;;7.68;1.40;;;;;;;;;;5032520;28;20037;-67
2024/01/15 13:06:50;;;;;;;7.43;1.02;;;;;;;;;;5032617;28;20033;-66
2024/01/15 13:09:17;;;;;;;8.80;1.42;;;;;;;;;;5032260;28;20028;-67
2024/01/15 13:11:43;;;;;;;8.15;1.40;;;;;;;;;;5031667;28;20033;-67
2024/01/15 13:14:09;;;;;;;10.63;1.98;;;;;;;;;;5031000;28;20749;-67
2024/01/15 13:16:35;;;;;;;5.60;1.58;;;;;;;;;;5030122;28;20135;-67
2024/01/15 13:19:03;;;;;;;6.88;1.25;;;;;;;;;;5030537;28;20155;-67
2024/01/15 13:21:29;;;;;;;4.25;1.00;;;;;;;;;;5012433;28;20025;-67
2024/01/15 13:23:55;;;;;;;12.15;1.30;;;;;;;;;;5031978;28;20036;-67
2024/01/15 13:26:21;;;;;;;10.65;1.30;;;;;;;;;;5013809;28;20044;-68
2024/01/15 13:28:47;;;;;;;7.18;1.50;;;;;;;;;;5031005;28;20033;-67
2024/01/15 13:31:14;;;;;;;8.75;1.33;;;;;;;;;;5019856;28;20040;-67
2024/01/15 13:33:40;;;;;;;10.23;1.50;;;;;;;;;;5031631;28;20041;-67
2024/01/15 13:36:10;;;;;;;9.55;1.27;;;;;;;;;;5031046;28;20041;-67
2024/01/15 13:38:36;;;;;;;15.23;1.67;;;;;;;;;;5019442;28;20729;-67
2024/01/15 13:41:03;;;;;;;9.52;1.67;;;;;;;;;;5031965;28;20202;-67
2024/01/15 13:43:29;;;;;;;15.55;2.08;;;;;;;;;;5031499;28;20021;-67
2024/01/15 13:45:55;;;;;;;11.70;1.67;;;;;;;;;;5019716;28;20037;-67
2024/01/15 13:48:21;;;;;;;10.30;1.45;;;;;;;;;;5032471;28;20483;-67
2024/01/15 13:50:47;;;;;;;11.05;2.58;;;;;;;;;;5031922;28;20728;-67
2024/01/15 13:53:13;;;;;;;6.22;1.15;;;;;;;;;;5031099;28;22043;-67
2024/01/15 13:55:40;;;;;;;9.95;1.20;;;;;;;;;;5031061;28;20037;-67
2024/01/15 13:58:06;;;;;;;12.88;1.77;;;;;;;;;;5031853;28;20048;-67
2024/01/15 14:00:33;;;;;;;9.05;2.17;;;;;;;;;;5030970;28;20043;-67
2024/01/15 14:02:59;;;;;;;9.80;1.95;;;;;;;;;;5032121;28;20025;-67
2024/01/15 14:05:25;;;;;;;14.95;2.33;;;;;;;;;;5030508;28;20090;-67
2024/01/15 14:07:51;;;;;;;10.35;1.95;;;;;;;;;;5031654;28;21819;-67
2024/01/15 14:10:17;;;;;;;11.13;1.98;;;;;;;;;;5031327;28;20481;-67
2024/01/15 14:12:43;;;;;;;11.70;1.70;;;;;;;;;;5029447;28;20044;-67
2024/01/15 14:15:10;;;;;;;11.20;2.20;;;;;;;;;;5013502;28;20040;-67
2024/01/15 14:17:36;;;;;;;12.68;1.50;;;;;;;;;;5030975;28;20037;-67
2024/01/15 14:20:04;;;;;;;9.88;1.45;;;;;;;;;;5030858;28;20032;-67
2024/01/15 14:22:30;;;;;;;7.63;1.35;;;;;;;;;;5030746;28;20033;-67
2024/01/15 14:24:57;;;;;;;9.43;1.67;;;;;;;;;;5030566;28;20044;-67
2024/01/15 14:27:23;;;;;;;8.25;1.70;;;;;;;;;;5032049;28;20044;-67
2024/01/15 14:29:49;;;;;;;13.07;2.55;;;;;;;;;;5030596;28;20041;-67
2024/01/15 14:32:15;;;;;;;17.38;3.03;;;;;;;;;;5030126;28;20036;-67
2024/01/15 14:34:41;;;;;;;12.55;1.92;;;;;;;;;;5029393;28;20048;-67